Main page
METAR-TAF:

METAR-TAF

Airports :

Kirkwall Airport

Kirkwall, Scotland

latitude: 58-57N, longitude: 002-54W, elevation: 21 m

Current weather observation

The report was made 15 minutes ago, at 04:20 UTC
Wind 6 kt from the South/Southwest
Temperature 9°C
Humidity 87%
Pressure 1000 hPa
Visibility 10 km or more

METAR: EGPA 160420Z AUTO 21006KT 9999 NCD 09/07 Q1000

Time: 05:35 (04:35 UTC)

Forecast

The report was made 2 hours and 32 minutes ago, at 02:03 UTC
Forecast valid from 16 at 03 UTC to 16 at 12 UTC
Wind 12 kt from the South/Southwest
Visibility 10 km or more
Few clouds at a height of 3000 ft

TAF: EGPA 160203Z 1603/1612 20012KT 9999 FEW030

Weather observations and forecasts of more than 4000 airports (METAR and TAF reports).

The available stations are represented by yellow and red dots on the map.

Hover mouse over dot to see the name of the station.

Then click to see weather observations and forecasts.

To change the map : click on the green buttons with a black cross to zoom in, on the green button with a dash to zoom out, or on the green arrows for adjacent maps.


METAR-TAF: